createdAt,value
2019-04-20T00:01:05.342Z,53.50
2019-04-20T00:03:09.731Z,53.30
2019-04-20T00:05:15.038Z,53.50
2019-04-20T00:07:24.651Z,53.60
2019-04-20T00:09:29.865Z,53.20
2019-04-20T00:11:41.650Z,52.70
2019-04-20T00:13:47.665Z,52.60
2019-04-20T00:15:42.947Z,52.50
2019-04-20T00:17:52.407Z,52.90
2019-04-20T00:19:54.584Z,52.80
2019-04-20T00:22:06.673Z,52.20
2019-04-20T00:24:24.744Z,52.00
2019-04-20T00:26:52.174Z,51.70
2019-04-20T00:28:45.667Z,51.80
2019-04-20T00:30:55.750Z,51.90
2019-04-20T00:32:54.686Z,51.60
2019-04-20T00:34:48.873Z,51.70
2019-04-20T00:36:52.372Z,51.30
2019-04-20T00:38:59.505Z,51.50
2019-04-20T00:41:05.588Z,51.90
2019-04-20T00:43:08.629Z,52.30
2019-04-20T00:45:19.079Z,52.30
2019-04-20T00:47:31.773Z,53.30
2019-04-20T00:49:39.939Z,53.20
2019-04-20T00:51:46.614Z,54.00
2019-04-20T00:53:40.858Z,53.80
2019-04-20T00:55:40.504Z,53.60
2019-04-20T00:57:50.463Z,53.80
2019-04-20T01:00:11.021Z,54.50
2019-04-20T01:02:15.605Z,55.10
2019-04-20T01:04:20.509Z,55.20
2019-04-20T01:06:35.799Z,55.60
2019-04-20T01:08:23.402Z,55.90
2019-04-20T01:10:35.365Z,56.40
2019-04-20T01:12:35.588Z,56.90
2019-04-20T01:14:47.046Z,56.90
2019-04-20T01:16:52.851Z,57.10
2019-04-20T01:18:49.978Z,57.40
2019-04-20T01:20:59.113Z,57.40
2019-04-20T01:23:06.172Z,57.70
2019-04-20T01:25:16.525Z,58.00
2019-04-20T01:27:31.109Z,58.00
2019-04-20T01:29:29.636Z,58.30
2019-04-20T01:31:33.625Z,58.80
2019-04-20T01:33:40.410Z,58.90
2019-04-20T01:35:52.086Z,59.10
2019-04-20T01:38:05.743Z,59.40
2019-04-20T01:39:52.039Z,59.80
2019-04-20T01:41:51.985Z,59.90
2019-04-20T01:43:56.333Z,60.00
2019-04-20T01:46:08.121Z,60.00
2019-04-20T01:48:07.007Z,60.20
2019-04-20T01:50:16.672Z,60.90
2019-04-20T01:52:27.073Z,61.10
2019-04-20T01:54:48.468Z,61.20
2019-04-20T01:56:43.761Z,61.10
2019-04-20T01:59:02.617Z,61.40
2019-04-20T02:00:51.165Z,61.70
2019-04-20T02:02:59.280Z,61.80
2019-04-20T02:05:11.357Z,61.80
2019-04-20T02:07:08.685Z,61.70
2019-04-20T02:09:18.703Z,62.00
2019-04-20T02:11:25.036Z,62.20
2019-04-20T02:13:27.978Z,61.90
2019-04-20T02:15:37.914Z,62.20
2019-04-20T02:17:40.745Z,62.50
2019-04-20T02:20:01.000Z,62.90
2019-04-20T02:21:59.095Z,62.90
2019-04-20T02:23:56.365Z,63.00
2019-04-20T02:25:57.053Z,63.40
2019-04-20T02:28:20.337Z,63.70
2019-04-20T02:30:51.763Z,64.10
2019-04-20T02:35:07.703Z,64.10
2019-04-20T02:41:38.055Z,63.40
2019-04-20T02:43:53.581Z,63.70
2019-04-20T02:50:00.221Z,64.70
2019-04-20T02:54:15.061Z,65.40
2019-04-20T02:56:12.319Z,65.40
2019-04-20T02:58:18.705Z,65.80
2019-04-20T03:00:21.587Z,66.20
2019-04-20T03:02:17.028Z,66.40
2019-04-20T03:04:06.904Z,66.40
2019-04-20T03:06:19.827Z,66.40
2019-04-20T03:08:33.097Z,66.60
2019-04-20T03:10:50.843Z,67.00
2019-04-20T03:12:47.439Z,67.00
2019-04-20T03:14:44.301Z,66.80
2019-04-20T03:16:55.027Z,66.70
2019-04-20T03:18:58.771Z,67.00
2019-04-20T03:21:11.232Z,67.20
2019-04-20T03:23:23.480Z,67.30
2019-04-20T03:25:28.506Z,67.40
2019-04-20T03:27:26.179Z,67.40
2019-04-20T03:29:41.249Z,67.60
2019-04-20T03:32:35.590Z,67.80
2019-04-20T03:34:38.435Z,67.90
2019-04-20T03:36:39.773Z,67.90
2019-04-20T03:38:36.308Z,68.00
2019-04-20T03:40:34.671Z,67.90
2019-04-20T03:42:26.693Z,68.00
2019-04-20T03:44:34.022Z,68.20
2019-04-20T03:46:44.935Z,68.30
2019-04-20T03:49:02.810Z,68.50
2019-04-20T03:51:07.467Z,68.60
2019-04-20T03:53:19.259Z,68.70
2019-04-20T03:55:26.102Z,68.90
2019-04-20T03:57:34.463Z,68.80
2019-04-20T03:59:39.155Z,69.00
2019-04-20T04:02:09.313Z,68.80
2019-04-20T04:04:01.450Z,68.80
2019-04-20T04:06:11.742Z,68.90
2019-04-20T04:08:12.219Z,68.90
2019-04-20T04:10:21.994Z,68.60
2019-04-20T04:12:50.148Z,68.70
2019-04-20T04:14:55.682Z,68.90
2019-04-20T04:17:02.298Z,68.60
2019-04-20T04:19:15.836Z,68.70
2019-04-20T04:21:21.230Z,69.80
2019-04-20T04:23:38.096Z,68.30
2019-04-20T04:25:39.767Z,68.10
2019-04-20T04:27:52.217Z,68.10
2019-04-20T04:30:00.916Z,68.00
2019-04-20T04:32:17.397Z,67.80
2019-04-20T04:34:12.458Z,67.60
2019-04-20T04:36:12.953Z,67.70
2019-04-20T04:38:19.421Z,68.00
2019-04-20T04:40:31.716Z,68.00
2019-04-20T04:42:39.235Z,68.20
2019-04-20T04:44:30.307Z,68.30
2019-04-20T04:46:24.769Z,68.20
2019-04-20T04:48:34.984Z,68.00
2019-04-20T04:50:44.618Z,67.70
2019-04-20T04:52:52.188Z,67.90
2019-04-20T04:54:53.713Z,68.50
2019-04-20T04:56:52.477Z,68.40
2019-04-20T04:58:56.594Z,68.40
2019-04-20T05:01:05.672Z,68.20
2019-04-20T05:03:23.116Z,68.70
2019-04-20T05:05:36.975Z,68.70
2019-04-20T05:07:45.134Z,68.40
2019-04-20T05:09:33.996Z,68.50
2019-04-20T05:11:38.598Z,68.20
2019-04-20T05:13:52.339Z,68.70
2019-04-20T05:16:00.400Z,68.50
2019-04-20T05:18:12.925Z,68.90
2019-04-20T05:20:17.783Z,68.40
2019-04-20T05:22:27.581Z,67.80
2019-04-20T05:24:28.843Z,68.10
2019-04-20T05:26:45.973Z,68.60
2019-04-20T05:28:45.035Z,67.90
2019-04-20T05:30:48.682Z,68.50
2019-04-20T05:32:59.067Z,68.60
2019-04-20T05:35:16.424Z,68.30
2019-04-20T05:37:29.813Z,68.40
2019-04-20T05:41:31.068Z,67.90
2019-04-20T05:43:46.789Z,67.80
2019-04-20T05:45:51.138Z,67.50
2019-04-20T05:47:59.009Z,67.00
2019-04-20T05:50:01.254Z,66.50
2019-04-20T05:52:31.624Z,65.80
2019-04-20T05:54:23.447Z,66.00
2019-04-20T05:56:31.703Z,66.40
2019-04-20T05:58:32.735Z,66.00
2019-04-20T06:00:40.569Z,65.60
2019-04-20T06:02:45.122Z,64.80
2019-04-20T06:05:02.197Z,65.10
2019-04-20T06:07:01.710Z,65.00
2019-04-20T06:09:05.694Z,64.70
2019-04-20T06:11:12.972Z,64.90
2019-04-20T06:13:22.633Z,63.50
2019-04-20T06:15:43.260Z,62.70
2019-04-20T06:18:02.495Z,62.00
2019-04-20T06:20:12.521Z,61.50
2019-04-20T06:22:31.031Z,62.20
2019-04-20T06:24:42.110Z,60.50
2019-04-20T06:28:49.929Z,59.60
2019-04-20T06:31:10.614Z,59.20
2019-04-20T06:34:11.383Z,58.60
2019-04-20T06:36:07.577Z,58.10
2019-04-20T06:38:10.774Z,58.00
2019-04-20T06:40:23.952Z,56.00
2019-04-20T06:44:24.464Z,55.60
2019-04-20T06:46:22.265Z,55.60
2019-04-20T06:48:36.981Z,55.30
2019-04-20T06:50:32.601Z,54.30
2019-04-20T06:52:52.360Z,54.40
2019-04-20T06:55:03.056Z,54.70
2019-04-20T06:57:15.081Z,53.30
2019-04-20T06:59:29.084Z,53.30
2019-04-20T07:01:25.133Z,53.80
2019-04-20T07:03:49.412Z,54.30
2019-04-20T07:05:31.599Z,54.20
2019-04-20T07:07:43.425Z,53.90
2019-04-20T07:10:05.054Z,53.10
2019-04-20T07:11:50.456Z,52.70
2019-04-20T07:13:48.207Z,52.40
2019-04-20T07:16:18.330Z,51.70
2019-04-20T07:18:24.532Z,51.20
2019-04-20T07:20:39.193Z,50.90
2019-04-20T07:22:38.888Z,50.70
2019-04-20T07:24:53.181Z,50.10
2019-04-20T07:26:59.067Z,49.80
2019-04-20T07:28:59.293Z,50.60
2019-04-20T07:31:03.047Z,50.40
2019-04-20T07:33:20.018Z,50.20
2019-04-20T07:35:19.756Z,49.60
2019-04-20T07:39:32.772Z,47.80
2019-04-20T07:42:00.386Z,47.10
2019-04-20T07:43:52.994Z,47.00
2019-04-20T07:45:48.968Z,46.70
2019-04-20T07:48:07.481Z,46.30
2019-04-20T07:50:03.811Z,46.00
2019-04-20T07:51:50.748Z,46.30
2019-04-20T07:54:24.492Z,46.60
2019-04-20T07:56:23.643Z,46.20
2019-04-20T07:58:19.794Z,45.50
2019-04-20T08:00:44.863Z,46.20
2019-04-20T08:03:03.004Z,45.30
2019-04-20T08:04:59.535Z,44.50
2019-04-20T08:06:58.533Z,45.20
2019-04-20T08:09:17.159Z,45.60
2019-04-20T08:11:23.233Z,45.90
2019-04-20T08:13:42.085Z,45.20
2019-04-20T08:19:45.648Z,45.50
2019-04-20T08:21:52.982Z,45.20
2019-04-20T08:23:55.762Z,43.70
2019-04-20T08:25:56.960Z,43.70
2019-04-20T08:27:55.095Z,43.20
2019-04-20T08:30:20.484Z,43.80
2019-04-20T08:32:28.060Z,42.90
2019-04-20T08:34:43.021Z,42.60
2019-04-20T08:36:53.946Z,42.50
2019-04-20T08:41:00.324Z,42.50
2019-04-20T08:43:15.134Z,41.40
2019-04-20T08:45:07.245Z,41.00
2019-04-20T08:47:24.204Z,40.40
2019-04-20T08:49:25.395Z,41.00
2019-04-20T08:51:26.129Z,41.20
2019-04-20T08:53:33.278Z,40.70
2019-04-20T08:55:33.411Z,39.70
2019-04-20T08:57:24.591Z,39.90
2019-04-20T08:59:28.933Z,39.30
2019-04-20T09:01:35.846Z,40.00
2019-04-20T09:03:51.235Z,39.40
2019-04-20T09:05:55.335Z,37.70
2019-04-20T09:08:02.416Z,36.90
2019-04-20T09:10:25.291Z,38.10
2019-04-20T09:12:23.231Z,36.60
2019-04-20T09:14:21.738Z,35.60
2019-04-20T09:16:35.703Z,35.30
2019-04-20T09:18:49.345Z,36.40
2019-04-20T09:20:52.869Z,35.50
2019-04-20T09:23:18.620Z,33.70
2019-04-20T09:25:48.446Z,33.30
2019-04-20T09:27:29.180Z,34.30
2019-04-20T09:29:37.167Z,34.90
2019-04-20T09:31:50.228Z,34.20
2019-04-20T09:34:14.328Z,34.90
2019-04-20T09:36:21.037Z,34.60
2019-04-20T09:38:28.774Z,34.50
2019-04-20T09:40:34.983Z,33.70
2019-04-20T09:42:23.962Z,33.50
2019-04-20T09:44:31.411Z,34.70
2019-04-20T09:46:41.261Z,34.80
2019-04-20T09:48:52.445Z,34.70
2019-04-20T09:51:19.245Z,34.10
2019-04-20T09:53:14.333Z,33.90
2019-04-20T09:55:23.230Z,33.40
2019-04-20T09:57:33.413Z,33.50
2019-04-20T09:59:40.097Z,34.40
2019-04-20T10:01:36.736Z,34.60
2019-04-20T10:03:31.694Z,33.50
2019-04-20T10:05:37.850Z,33.20
2019-04-20T10:07:47.278Z,32.60
2019-04-20T10:09:55.797Z,33.20
2019-04-20T10:11:59.794Z,32.20
2019-04-20T10:14:04.006Z,31.80
2019-04-20T10:16:08.088Z,30.70
2019-04-20T10:18:12.110Z,30.90
2019-04-20T10:20:24.417Z,31.00
2019-04-20T10:22:22.535Z,30.60
2019-04-20T10:24:26.595Z,31.00
2019-04-20T10:26:30.566Z,30.90
2019-04-20T10:28:34.588Z,29.90
2019-04-20T10:30:38.789Z,29.60
2019-04-20T10:32:45.602Z,29.60
2019-04-20T10:34:48.560Z,29.20
2019-04-20T10:37:04.080Z,29.90
2019-04-20T10:39:10.719Z,29.20
2019-04-20T10:41:28.381Z,29.20
2019-04-20T10:43:21.773Z,30.00
2019-04-20T10:45:26.787Z,28.80
2019-04-20T10:47:30.821Z,28.50
2019-04-20T10:49:35.335Z,28.50
2019-04-20T10:51:39.968Z,27.70
2019-04-20T10:53:44.517Z,27.60
2019-04-20T10:55:49.468Z,27.00
2019-04-20T10:57:53.942Z,27.20
2019-04-20T10:59:57.844Z,27.30
2019-04-20T11:02:01.734Z,27.60
2019-04-20T11:04:06.065Z,26.70
2019-04-20T11:06:11.028Z,26.40
2019-04-20T11:08:15.312Z,26.60
2019-04-20T11:10:25.733Z,26.40
2019-04-20T11:12:26.500Z,26.70
2019-04-20T11:14:34.581Z,27.20
2019-04-20T11:16:36.216Z,26.20
2019-04-20T11:18:40.264Z,25.80
2019-04-20T11:20:44.051Z,25.00
2019-04-20T11:22:48.517Z,25.30
2019-04-20T11:24:52.707Z,25.50
2019-04-20T11:26:56.704Z,26.00
2019-04-20T11:29:02.055Z,26.00
2019-04-20T11:31:06.255Z,24.60
2019-04-20T11:33:10.115Z,25.60
2019-04-20T11:35:23.234Z,25.00
2019-04-20T11:37:21.256Z,25.60
2019-04-20T11:39:25.373Z,25.00
2019-04-20T11:41:32.305Z,25.50
2019-04-20T11:43:35.683Z,25.50
2019-04-20T11:45:40.576Z,25.30
2019-04-20T11:47:45.517Z,24.60
2019-04-20T11:49:49.460Z,24.50
2019-04-20T11:51:53.455Z,24.50
2019-04-20T11:53:58.442Z,24.00
2019-04-20T11:56:02.553Z,24.40
2019-04-20T11:58:07.969Z,24.60
2019-04-20T12:00:15.495Z,25.10
2019-04-20T12:02:35.495Z,24.40
2019-04-20T12:04:49.095Z,24.50
2019-04-20T12:06:46.637Z,24.60
2019-04-20T12:08:50.971Z,24.10
2019-04-20T12:10:59.511Z,23.20
2019-04-20T12:13:01.797Z,23.10
2019-04-20T12:15:06.923Z,21.90
2019-04-20T12:17:11.534Z,23.00
2019-04-20T12:19:18.660Z,23.00
2019-04-20T12:21:23.128Z,23.40
2019-04-20T12:23:28.544Z,21.80
2019-04-20T12:25:35.891Z,21.70
2019-04-20T12:27:41.975Z,21.70
2019-04-20T12:29:45.834Z,21.30
2019-04-20T12:31:56.315Z,20.70
2019-04-20T12:33:58.481Z,20.40
2019-04-20T12:36:02.581Z,20.80
2019-04-20T12:38:10.493Z,20.30
2019-04-20T12:40:14.306Z,20.20
2019-04-20T12:42:18.988Z,19.90
2019-04-20T12:44:23.675Z,19.80
2019-04-20T12:46:32.074Z,19.90
2019-04-20T12:48:37.606Z,20.60
2019-04-20T12:50:41.597Z,20.50
2019-04-20T12:52:46.254Z,20.60
2019-04-20T12:54:50.515Z,21.20
2019-04-20T12:56:54.411Z,20.70
2019-04-20T12:58:59.792Z,21.20
2019-04-20T13:01:04.507Z,20.70
2019-04-20T13:03:09.524Z,20.40
2019-04-20T13:05:15.396Z,19.70
2019-04-20T13:07:19.671Z,19.10
2019-04-20T13:09:28.879Z,19.90
2019-04-20T13:11:46.256Z,18.60
2019-04-20T13:13:48.262Z,19.00
2019-04-20T13:15:54.381Z,19.60
2019-04-20T13:18:01.116Z,18.70
2019-04-20T13:20:07.903Z,19.00
2019-04-20T13:22:13.000Z,19.50
2019-04-20T13:24:18.626Z,20.10
2019-04-20T13:26:22.894Z,20.40
2019-04-20T13:28:30.711Z,20.60
2019-04-20T13:30:35.530Z,19.30
2019-04-20T13:32:39.600Z,19.80
2019-04-20T13:34:44.522Z,20.70
2019-04-20T13:36:50.402Z,21.30
2019-04-20T13:38:56.383Z,20.70
2019-04-20T13:41:01.905Z,20.90
2019-04-20T13:43:06.076Z,20.50
2019-04-20T13:45:10.738Z,20.20
2019-04-20T13:47:14.953Z,19.70
2019-04-20T13:49:19.125Z,20.40
2019-04-20T13:51:23.114Z,21.10
2019-04-20T13:53:27.511Z,21.20
2019-04-20T13:55:31.895Z,20.90
2019-04-20T13:57:37.954Z,21.40
2019-04-20T13:59:46.525Z,21.30
2019-04-20T14:02:04.643Z,21.80
2019-04-20T14:04:16.805Z,22.40
2019-04-20T14:06:20.834Z,22.00
2019-04-20T14:08:27.375Z,21.90
2019-04-20T14:10:31.551Z,22.00
2019-04-20T14:12:39.035Z,22.40
2019-04-20T14:14:41.374Z,21.30
2019-04-20T14:16:45.519Z,21.60
2019-04-20T14:18:49.419Z,21.30
2019-04-20T14:20:56.274Z,21.90
2019-04-20T14:23:01.029Z,22.20
2019-04-20T14:25:06.937Z,22.60
2019-04-20T14:27:11.031Z,21.50
2019-04-20T14:29:14.929Z,21.00
2019-04-20T14:31:19.593Z,21.20
2019-04-20T14:33:24.229Z,21.00
2019-04-20T14:35:29.205Z,20.90
2019-04-20T14:37:33.183Z,21.10
2019-04-20T14:39:38.271Z,20.60
2019-04-20T14:41:42.392Z,20.60
2019-04-20T14:43:46.973Z,21.20
2019-04-20T14:45:50.889Z,21.30
2019-04-20T14:47:54.834Z,21.30
2019-04-20T14:50:02.601Z,21.20
2019-04-20T14:52:08.246Z,20.40
2019-04-20T14:54:13.778Z,20.30
2019-04-20T14:56:17.812Z,20.70
2019-04-20T14:58:41.592Z,20.40
2019-04-20T15:00:51.021Z,20.90
2019-04-20T15:02:52.372Z,21.80
2019-04-20T15:04:56.986Z,21.20
2019-04-20T15:07:02.374Z,21.90
2019-04-20T15:09:08.833Z,21.80
2019-04-20T15:11:12.920Z,21.50
2019-04-20T15:13:17.051Z,21.60
2019-04-20T15:15:21.217Z,22.00
2019-04-20T15:17:29.780Z,21.40
2019-04-20T15:19:39.700Z,22.10
2019-04-20T15:21:45.487Z,21.60
2019-04-20T15:23:49.351Z,21.90
2019-04-20T15:25:54.726Z,21.60
2019-04-20T15:28:00.468Z,21.10
2019-04-20T15:30:08.642Z,21.90
2019-04-20T15:32:13.233Z,20.90
2019-04-20T15:34:17.378Z,21.50
2019-04-20T15:36:22.198Z,21.40
2019-04-20T15:38:27.135Z,21.40
2019-04-20T15:40:31.551Z,22.20
2019-04-20T15:42:47.862Z,21.90
2019-04-20T15:44:40.892Z,21.50
2019-04-20T15:46:45.602Z,21.50
2019-04-20T15:48:50.261Z,21.80
2019-04-20T15:50:56.207Z,21.70
2019-04-20T15:53:01.889Z,21.80
2019-04-20T15:55:15.752Z,22.20
2019-04-20T15:57:16.838Z,22.10
2019-04-20T15:59:17.888Z,21.60
2019-04-20T16:01:23.333Z,22.20
2019-04-20T16:03:32.918Z,22.20
2019-04-20T16:05:56.469Z,21.80
2019-04-20T16:08:03.975Z,21.80
2019-04-20T16:10:09.415Z,21.30
2019-04-20T16:12:13.472Z,21.70
2019-04-20T16:14:17.552Z,21.20
2019-04-20T16:16:23.641Z,21.70
2019-04-20T16:18:30.619Z,21.70
2019-04-20T16:20:47.274Z,22.10
2019-04-20T16:22:40.599Z,22.20
2019-04-20T16:24:46.881Z,22.20
2019-04-20T16:26:55.709Z,22.30
2019-04-20T16:28:59.801Z,22.80
2019-04-20T16:31:06.999Z,22.60
2019-04-20T16:33:10.457Z,23.00
2019-04-20T16:35:14.704Z,23.10
2019-04-20T16:37:19.919Z,23.20
2019-04-20T16:39:24.663Z,23.40
2019-04-20T16:41:28.831Z,23.70
2019-04-20T16:43:37.362Z,23.60
2019-04-20T16:45:39.160Z,23.50
2019-04-20T16:47:44.160Z,22.50
2019-04-20T16:49:48.797Z,22.10
2019-04-20T16:51:52.878Z,22.80
2019-04-20T16:53:56.710Z,23.20
2019-04-20T16:56:01.168Z,23.00
2019-04-20T16:58:05.945Z,23.30
2019-04-20T17:00:11.441Z,23.20
2019-04-20T17:02:17.440Z,22.80
2019-04-20T17:04:24.024Z,22.90
2019-04-20T17:06:27.001Z,23.10
2019-04-20T17:08:31.171Z,23.30
2019-04-20T17:10:35.177Z,23.30
2019-04-20T17:12:41.803Z,22.80
2019-04-20T17:14:47.451Z,23.10
2019-04-20T17:16:51.585Z,23.50
2019-04-20T17:18:55.492Z,24.20
2019-04-20T17:21:07.311Z,23.90
2019-04-20T17:23:07.410Z,23.70
2019-04-20T17:25:12.296Z,24.00
2019-04-20T17:27:37.075Z,24.40
2019-04-20T17:29:50.086Z,24.30
2019-04-20T17:32:13.786Z,24.80
2019-04-20T17:34:36.361Z,25.10
2019-04-20T17:36:27.768Z,24.90
2019-04-20T17:38:34.717Z,25.20
2019-04-20T17:40:56.391Z,25.40
2019-04-20T17:42:50.883Z,25.70
2019-04-20T17:44:57.942Z,25.80
2019-04-20T17:47:03.800Z,26.00
2019-04-20T17:49:14.505Z,26.10
2019-04-20T17:51:23.414Z,26.30
2019-04-20T17:53:24.017Z,26.40
2019-04-20T17:55:28.435Z,26.50
2019-04-20T17:57:23.668Z,26.80
2019-04-20T17:59:28.388Z,27.10
2019-04-20T18:01:49.792Z,27.00
2019-04-20T18:04:16.683Z,27.30
2019-04-20T18:06:12.686Z,27.60
2019-04-20T18:08:25.087Z,27.70
2019-04-20T18:10:23.238Z,27.80
2019-04-20T18:12:20.764Z,28.10
2019-04-20T18:14:31.520Z,28.20
2019-04-20T18:16:49.558Z,28.10
2019-04-20T18:18:55.310Z,28.20
2019-04-20T18:21:03.276Z,28.30
2019-04-20T18:23:08.589Z,28.70
2019-04-20T18:27:37.370Z,29.00
2019-04-20T18:29:40.653Z,29.50
2019-04-20T18:31:35.393Z,29.50
2019-04-20T18:33:42.479Z,29.90
2019-04-20T18:35:48.927Z,30.00
2019-04-20T18:37:59.283Z,30.10
2019-04-20T18:40:05.157Z,30.50
2019-04-20T18:42:14.261Z,30.20
2019-04-20T18:44:10.635Z,30.30
2019-04-20T18:46:33.167Z,31.10
2019-04-20T18:48:46.546Z,31.30
2019-04-20T18:50:34.122Z,30.20
2019-04-20T18:52:31.711Z,30.60
2019-04-20T18:54:40.624Z,30.90
2019-04-20T18:56:45.831Z,31.00
2019-04-20T18:58:47.025Z,31.30
2019-04-20T19:00:51.909Z,31.60
2019-04-20T19:03:02.731Z,31.80
2019-04-20T19:05:04.842Z,31.90
2019-04-20T19:07:07.966Z,32.00
2019-04-20T19:09:15.294Z,32.20
2019-04-20T19:11:21.268Z,32.50
2019-04-20T19:13:34.189Z,32.90
2019-04-20T19:15:55.190Z,33.30
2019-04-20T19:17:58.155Z,33.30
2019-04-20T19:19:53.290Z,33.20
2019-04-20T19:21:56.089Z,33.10
2019-04-20T19:24:07.747Z,33.10
2019-04-20T19:26:11.945Z,33.40
2019-04-20T19:28:14.447Z,33.70
2019-04-20T19:30:27.579Z,34.10
2019-04-20T19:32:36.884Z,34.50
2019-04-20T19:34:41.844Z,34.40
2019-04-20T19:36:41.459Z,34.80
2019-04-20T19:38:52.264Z,34.60
2019-04-20T19:40:54.554Z,34.70
2019-04-20T19:43:07.003Z,34.90
2019-04-20T19:45:18.698Z,34.90
2019-04-20T19:47:24.937Z,35.00
2019-04-20T19:49:19.673Z,35.20
2019-04-20T19:51:32.972Z,35.20
2019-04-20T19:53:37.932Z,35.50
2019-04-20T19:55:37.862Z,34.90
2019-04-20T19:57:45.134Z,34.40
2019-04-20T19:59:40.398Z,34.40
2019-04-20T20:01:42.055Z,34.80
2019-04-20T20:03:48.339Z,34.90
2019-04-20T20:05:53.846Z,34.90
2019-04-20T20:08:06.424Z,35.10
2019-04-20T20:10:12.685Z,35.30
2019-04-20T20:12:21.308Z,35.20
2019-04-20T20:14:36.524Z,35.80
2019-04-20T20:17:00.155Z,36.10
2019-04-20T20:19:01.448Z,36.40
2019-04-20T20:21:15.177Z,36.60
2019-04-20T20:23:14.100Z,37.00
2019-04-20T20:25:29.621Z,37.20
2019-04-20T20:27:46.957Z,37.40
2019-04-20T20:29:55.884Z,37.30
2019-04-20T20:32:09.997Z,37.40
2019-04-20T20:34:14.571Z,38.00
2019-04-20T20:36:20.182Z,38.10
2019-04-20T20:38:35.238Z,38.40
2019-04-20T20:40:43.534Z,38.80
2019-04-20T20:42:58.144Z,39.10
2019-04-20T20:45:06.982Z,39.20
2019-04-20T20:47:21.872Z,39.50
2019-04-20T20:49:32.984Z,39.60
2019-04-20T20:51:46.959Z,39.70
2019-04-20T20:53:42.833Z,39.60
2019-04-20T20:55:42.855Z,39.70
2019-04-20T20:57:56.260Z,40.00
2019-04-20T21:00:03.609Z,40.00
2019-04-20T21:02:12.715Z,40.10
2019-04-20T21:04:15.368Z,40.30
2019-04-20T21:06:24.443Z,40.40
2019-04-20T21:08:36.212Z,40.60
2019-04-20T21:10:44.110Z,40.90
2019-04-20T21:12:56.461Z,41.00
2019-04-20T21:15:08.175Z,41.50
2019-04-20T21:17:17.898Z,41.80
2019-04-20T21:19:43.702Z,41.70
2019-04-20T21:21:41.305Z,42.00
2019-04-20T21:23:48.083Z,42.10
2019-04-20T21:26:01.147Z,42.00
2019-04-20T21:28:06.885Z,42.50
2019-04-20T21:30:18.493Z,43.00
2019-04-20T21:32:26.145Z,43.60
2019-04-20T21:34:31.197Z,44.00
2019-04-20T21:36:36.860Z,43.90
2019-04-20T21:38:43.013Z,44.10
2019-04-20T21:40:49.369Z,44.30
2019-04-20T21:42:58.600Z,44.30
2019-04-20T21:45:09.503Z,44.50
2019-04-20T21:47:05.153Z,44.90
2019-04-20T21:49:25.308Z,45.60
2019-04-20T21:51:29.348Z,46.10
2019-04-20T21:53:26.897Z,46.60
2019-04-20T21:55:27.848Z,47.10
2019-04-20T21:57:39.076Z,47.40
2019-04-20T21:59:44.424Z,47.60
2019-04-20T22:01:55.085Z,47.80
2019-04-20T22:03:50.274Z,47.70
2019-04-20T22:06:06.852Z,47.50
2019-04-20T22:08:15.893Z,47.40
2019-04-20T22:10:21.753Z,47.50
2019-04-20T22:12:23.614Z,47.20
2019-04-20T22:14:31.575Z,47.70
2019-04-20T22:16:38.935Z,48.00
2019-04-20T22:18:48.451Z,48.20
2019-04-20T22:21:01.723Z,48.30
2019-04-20T22:23:02.659Z,48.30
2019-04-20T22:25:08.046Z,48.40
2019-04-20T22:27:09.874Z,48.70
2019-04-20T22:29:10.284Z,48.90
2019-04-20T22:31:14.263Z,49.20
2019-04-20T22:33:23.703Z,49.50
2019-04-20T22:35:26.149Z,50.10
2019-04-20T22:37:35.309Z,50.60
2019-04-20T22:39:49.890Z,50.50
2019-04-20T22:41:58.629Z,50.90
2019-04-20T22:43:56.906Z,51.50
2019-04-20T22:46:03.212Z,51.20
2019-04-20T22:48:10.993Z,51.10
2019-04-20T22:50:29.015Z,50.90
2019-04-20T22:52:34.843Z,50.70
2019-04-20T22:54:39.749Z,51.10
2019-04-20T22:56:44.065Z,51.30
2019-04-20T22:58:48.828Z,50.90
2019-04-20T23:00:52.020Z,51.20
2019-04-20T23:02:50.917Z,51.70
2019-04-20T23:04:55.244Z,52.20
2019-04-20T23:07:00.828Z,52.40
2019-04-20T23:09:10.967Z,52.50
2019-04-20T23:11:17.955Z,52.90
2019-04-20T23:13:23.249Z,52.80
2019-04-20T23:15:24.188Z,52.70
2019-04-20T23:17:35.944Z,52.80
2019-04-20T23:19:44.887Z,52.50
2019-04-20T23:21:48.522Z,52.30
2019-04-20T23:23:45.799Z,52.20
2019-04-20T23:25:51.103Z,51.70
2019-04-20T23:28:00.570Z,51.60
2019-04-20T23:30:03.628Z,51.50
2019-04-20T23:32:09.849Z,51.10
2019-04-20T23:34:16.143Z,50.50
2019-04-20T23:36:19.315Z,50.40
2019-04-20T23:38:24.679Z,50.40
2019-04-20T23:40:29.890Z,50.30
2019-04-20T23:42:39.227Z,50.50
2019-04-20T23:44:45.836Z,50.70
2019-04-20T23:47:01.194Z,50.50
2019-04-20T23:49:25.082Z,50.30
2019-04-20T23:51:49.857Z,50.40
2019-04-20T23:53:46.783Z,50.30
2019-04-20T23:55:35.965Z,50.30
2019-04-20T23:57:40.149Z,50.30
2019-04-20T23:59:46.164Z,50.20
